sensor_id;sensor_type;location;lat;lon;timestamp;P1;durP1;ratioP1;P2;durP2;ratioP2
67074;SDS011;53990;50.334;18.640;2023-07-22T00:02:25;9.30;;;7.40;;
67074;SDS011;53990;50.334;18.640;2023-07-22T00:04:51;12.40;;;8.20;;
67074;SDS011;53990;50.334;18.640;2023-07-22T00:07:18;10.90;;;8.60;;
67074;SDS011;53990;50.334;18.640;2023-07-22T00:09:45;9.80;;;8.20;;
67074;SDS011;53990;50.334;18.640;2023-07-22T00:12:12;10.30;;;8.10;;
67074;SDS011;53990;50.334;18.640;2023-07-22T00:14:40;11.10;;;7.50;;
67074;SDS011;53990;50.334;18.640;2023-07-22T00:17:08;10.30;;;7.60;;
67074;SDS011;53990;50.334;18.640;2023-07-22T00:19:34;9.90;;;7.60;;
67074;SDS011;53990;50.334;18.640;2023-07-22T00:22:01;9.40;;;7.50;;
67074;SDS011;53990;50.334;18.640;2023-07-22T00:24:28;9.90;;;7.80;;
67074;SDS011;53990;50.334;18.640;2023-07-22T00:26:55;10.80;;;8.30;;
67074;SDS011;53990;50.334;18.640;2023-07-22T00:29:22;10.10;;;8.50;;
67074;SDS011;53990;50.334;18.640;2023-07-22T00:31:48;10.60;;;8.00;;
67074;SDS011;53990;50.334;18.640;2023-07-22T00:34:15;10.90;;;9.40;;
67074;SDS011;53990;50.334;18.640;2023-07-22T00:36:43;11.20;;;10.00;;
67074;SDS011;53990;50.334;18.640;2023-07-22T00:39:10;12.90;;;10.30;;
67074;SDS011;53990;50.334;18.640;2023-07-22T00:41:40;13.10;;;10.50;;
67074;SDS011;53990;50.334;18.640;2023-07-22T00:44:09;12.80;;;10.00;;
67074;SDS011;53990;50.334;18.640;2023-07-22T00:46:36;12.80;;;10.70;;
67074;SDS011;53990;50.334;18.640;2023-07-22T00:49:05;10.80;;;9.40;;
67074;SDS011;53990;50.334;18.640;2023-07-22T00:51:33;11.10;;;9.90;;
67074;SDS011;53990;50.334;18.640;2023-07-22T00:54:00;12.40;;;10.40;;
67074;SDS011;53990;50.334;18.640;2023-07-22T00:56:27;14.00;;;11.10;;
67074;SDS011;53990;50.334;18.640;2023-07-22T00:59:02;12.60;;;11.20;;
67074;SDS011;53990;50.334;18.640;2023-07-22T01:01:29;14.70;;;12.50;;
67074;SDS011;53990;50.334;18.640;2023-07-22T01:03:56;16.10;;;12.90;;
67074;SDS011;53990;50.334;18.640;2023-07-22T01:06:23;16.30;;;13.20;;
67074;SDS011;53990;50.334;18.640;2023-07-22T01:08:58;15.50;;;12.80;;
67074;SDS011;53990;50.334;18.640;2023-07-22T01:11:25;14.70;;;12.50;;
67074;SDS011;53990;50.334;18.640;2023-07-22T01:13:52;16.20;;;11.70;;
67074;SDS011;53990;50.334;18.640;2023-07-22T01:16:26;12.90;;;10.10;;
67074;SDS011;53990;50.334;18.640;2023-07-22T01:18:53;11.60;;;10.20;;
67074;SDS011;53990;50.334;18.640;2023-07-22T01:21:24;11.00;;;9.70;;
67074;SDS011;53990;50.334;18.640;2023-07-22T01:23:51;13.80;;;11.10;;
67074;SDS011;53990;50.334;18.640;2023-07-22T01:26:19;12.40;;;10.40;;
67074;SDS011;53990;50.334;18.640;2023-07-22T01:28:46;14.90;;;11.50;;
67074;SDS011;53990;50.334;18.640;2023-07-22T01:31:13;12.50;;;10.60;;
67074;SDS011;53990;50.334;18.640;2023-07-22T01:33:39;12.00;;;10.60;;
67074;SDS011;53990;50.334;18.640;2023-07-22T01:36:06;15.40;;;11.80;;
67074;SDS011;53990;50.334;18.640;2023-07-22T01:38:34;13.20;;;10.10;;
67074;SDS011;53990;50.334;18.640;2023-07-22T01:41:02;12.00;;;10.30;;
67074;SDS011;53990;50.334;18.640;2023-07-22T01:43:29;13.60;;;11.10;;
67074;SDS011;53990;50.334;18.640;2023-07-22T01:45:55;12.80;;;11.20;;
67074;SDS011;53990;50.334;18.640;2023-07-22T01:48:22;11.60;;;10.30;;
67074;SDS011;53990;50.334;18.640;2023-07-22T01:50:50;13.70;;;11.30;;
67074;SDS011;53990;50.334;18.640;2023-07-22T01:53:16;13.30;;;10.80;;
67074;SDS011;53990;50.334;18.640;2023-07-22T01:55:43;13.10;;;10.70;;
67074;SDS011;53990;50.334;18.640;2023-07-22T01:58:10;13.10;;;10.60;;
67074;SDS011;53990;50.334;18.640;2023-07-22T02:00:37;12.40;;;9.50;;
67074;SDS011;53990;50.334;18.640;2023-07-22T02:03:04;11.50;;;9.70;;
67074;SDS011;53990;50.334;18.640;2023-07-22T02:05:30;12.30;;;9.80;;
67074;SDS011;53990;50.334;18.640;2023-07-22T02:07:58;11.30;;;9.90;;
67074;SDS011;53990;50.334;18.640;2023-07-22T02:10:24;13.90;;;9.70;;
67074;SDS011;53990;50.334;18.640;2023-07-22T02:12:51;9.90;;;7.90;;
67074;SDS011;53990;50.334;18.640;2023-07-22T02:15:18;11.50;;;8.00;;
67074;SDS011;53990;50.334;18.640;2023-07-22T02:17:45;12.80;;;8.00;;
67074;SDS011;53990;50.334;18.640;2023-07-22T02:20:12;10.60;;;7.70;;
67074;SDS011;53990;50.334;18.640;2023-07-22T02:22:39;11.40;;;8.80;;
67074;SDS011;53990;50.334;18.640;2023-07-22T02:25:06;11.40;;;8.30;;
67074;SDS011;53990;50.334;18.640;2023-07-22T02:27:33;11.70;;;8.30;;
67074;SDS011;53990;50.334;18.640;2023-07-22T02:29:59;10.20;;;7.50;;
67074;SDS011;53990;50.334;18.640;2023-07-22T02:32:26;13.50;;;8.00;;
67074;SDS011;53990;50.334;18.640;2023-07-22T02:34:53;10.90;;;8.20;;
67074;SDS011;53990;50.334;18.640;2023-07-22T02:37:19;12.20;;;9.40;;
67074;SDS011;53990;50.334;18.640;2023-07-22T02:39:46;10.50;;;8.30;;
67074;SDS011;53990;50.334;18.640;2023-07-22T02:42:13;10.80;;;9.50;;
67074;SDS011;53990;50.334;18.640;2023-07-22T02:44:39;11.10;;;9.30;;
67074;SDS011;53990;50.334;18.640;2023-07-22T02:47:06;12.70;;;10.40;;
67074;SDS011;53990;50.334;18.640;2023-07-22T02:49:33;14.30;;;11.20;;
67074;SDS011;53990;50.334;18.640;2023-07-22T02:51:59;14.20;;;11.70;;
67074;SDS011;53990;50.334;18.640;2023-07-22T02:54:26;17.10;;;11.80;;
67074;SDS011;53990;50.334;18.640;2023-07-22T02:56:53;15.30;;;12.90;;
67074;SDS011;53990;50.334;18.640;2023-07-22T02:59:19;21.40;;;15.00;;
67074;SDS011;53990;50.334;18.640;2023-07-22T03:01:46;18.80;;;14.20;;
67074;SDS011;53990;50.334;18.640;2023-07-22T03:04:13;16.60;;;13.40;;
67074;SDS011;53990;50.334;18.640;2023-07-22T03:06:40;17.70;;;13.10;;
67074;SDS011;53990;50.334;18.640;2023-07-22T03:09:08;18.80;;;12.60;;
67074;SDS011;53990;50.334;18.640;2023-07-22T03:11:35;19.30;;;12.50;;
67074;SDS011;53990;50.334;18.640;2023-07-22T03:14:02;15.10;;;12.10;;
67074;SDS011;53990;50.334;18.640;2023-07-22T03:16:28;16.10;;;11.90;;
67074;SDS011;53990;50.334;18.640;2023-07-22T03:18:55;13.50;;;11.60;;
67074;SDS011;53990;50.334;18.640;2023-07-22T03:21:22;15.20;;;11.60;;
67074;SDS011;53990;50.334;18.640;2023-07-22T03:23:49;16.10;;;11.70;;
67074;SDS011;53990;50.334;18.640;2023-07-22T03:26:15;17.90;;;12.00;;
67074;SDS011;53990;50.334;18.640;2023-07-22T03:28:42;14.70;;;10.50;;
67074;SDS011;53990;50.334;18.640;2023-07-22T03:31:09;15.00;;;11.00;;
67074;SDS011;53990;50.334;18.640;2023-07-22T03:33:35;15.60;;;11.10;;
67074;SDS011;53990;50.334;18.640;2023-07-22T03:36:02;17.30;;;11.10;;
67074;SDS011;53990;50.334;18.640;2023-07-22T03:38:29;14.90;;;10.00;;
67074;SDS011;53990;50.334;18.640;2023-07-22T03:40:57;16.80;;;10.10;;
67074;SDS011;53990;50.334;18.640;2023-07-22T03:43:24;15.10;;;10.30;;
67074;SDS011;53990;50.334;18.640;2023-07-22T03:45:50;15.70;;;10.10;;
67074;SDS011;53990;50.334;18.640;2023-07-22T03:48:17;14.70;;;10.20;;
67074;SDS011;53990;50.334;18.640;2023-07-22T03:50:44;16.10;;;10.00;;
67074;SDS011;53990;50.334;18.640;2023-07-22T03:53:10;17.50;;;9.20;;
67074;SDS011;53990;50.334;18.640;2023-07-22T03:55:37;14.70;;;9.40;;
67074;SDS011;53990;50.334;18.640;2023-07-22T03:58:04;12.30;;;8.50;;
67074;SDS011;53990;50.334;18.640;2023-07-22T04:00:30;15.20;;;8.80;;
67074;SDS011;53990;50.334;18.640;2023-07-22T04:02:58;10.00;;;8.60;;
67074;SDS011;53990;50.334;18.640;2023-07-22T04:05:25;12.90;;;8.60;;
67074;SDS011;53990;50.334;18.640;2023-07-22T04:07:52;12.30;;;8.70;;
67074;SDS011;53990;50.334;18.640;2023-07-22T04:10:19;15.30;;;8.80;;
67074;SDS011;53990;50.334;18.640;2023-07-22T04:12:45;13.30;;;8.50;;
67074;SDS011;53990;50.334;18.640;2023-07-22T04:15:12;16.20;;;8.60;;
67074;SDS011;53990;50.334;18.640;2023-07-22T04:17:39;12.30;;;8.30;;
67074;SDS011;53990;50.334;18.640;2023-07-22T04:20:07;11.00;;;8.40;;
67074;SDS011;53990;50.334;18.640;2023-07-22T04:22:35;11.70;;;8.50;;
67074;SDS011;53990;50.334;18.640;2023-07-22T04:25:01;15.40;;;8.60;;
67074;SDS011;53990;50.334;18.640;2023-07-22T04:27:28;15.20;;;8.40;;
67074;SDS011;53990;50.334;18.640;2023-07-22T04:29:55;11.40;;;8.60;;
67074;SDS011;53990;50.334;18.640;2023-07-22T04:32:22;13.90;;;8.50;;
67074;SDS011;53990;50.334;18.640;2023-07-22T04:34:49;11.60;;;7.70;;
67074;SDS011;53990;50.334;18.640;2023-07-22T04:37:16;13.70;;;8.50;;
67074;SDS011;53990;50.334;18.640;2023-07-22T04:39:47;11.30;;;8.20;;
67074;SDS011;53990;50.334;18.640;2023-07-22T04:42:14;15.50;;;8.40;;
67074;SDS011;53990;50.334;18.640;2023-07-22T04:44:41;12.70;;;7.50;;
67074;SDS011;53990;50.334;18.640;2023-07-22T04:47:07;13.10;;;8.00;;
67074;SDS011;53990;50.334;18.640;2023-07-22T04:49:34;11.70;;;7.30;;
67074;SDS011;53990;50.334;18.640;2023-07-22T04:52:01;12.50;;;7.30;;
67074;SDS011;53990;50.334;18.640;2023-07-22T04:54:28;12.00;;;7.90;;
67074;SDS011;53990;50.334;18.640;2023-07-22T04:56:54;12.70;;;8.30;;
67074;SDS011;53990;50.334;18.640;2023-07-22T04:59:21;11.50;;;7.40;;
67074;SDS011;53990;50.334;18.640;2023-07-22T05:01:48;14.20;;;8.70;;
67074;SDS011;53990;50.334;18.640;2023-07-22T05:04:14;11.00;;;7.30;;
67074;SDS011;53990;50.334;18.640;2023-07-22T05:06:41;11.00;;;7.20;;
67074;SDS011;53990;50.334;18.640;2023-07-22T05:09:08;13.50;;;7.80;;
67074;SDS011;53990;50.334;18.640;2023-07-22T05:11:34;11.10;;;7.10;;
67074;SDS011;53990;50.334;18.640;2023-07-22T05:14:01;11.80;;;7.50;;
67074;SDS011;53990;50.334;18.640;2023-07-22T05:16:28;12.70;;;7.60;;
67074;SDS011;53990;50.334;18.640;2023-07-22T05:18:54;14.40;;;8.40;;
67074;SDS011;53990;50.334;18.640;2023-07-22T05:21:21;12.40;;;7.70;;
67074;SDS011;53990;50.334;18.640;2023-07-22T05:23:48;11.50;;;7.80;;
67074;SDS011;53990;50.334;18.640;2023-07-22T05:26:14;9.80;;;7.30;;
67074;SDS011;53990;50.334;18.640;2023-07-22T05:28:41;12.20;;;7.80;;
67074;SDS011;53990;50.334;18.640;2023-07-22T05:31:08;14.40;;;7.80;;
67074;SDS011;53990;50.334;18.640;2023-07-22T05:33:35;9.10;;;6.80;;
67074;SDS011;53990;50.334;18.640;2023-07-22T05:36:02;13.80;;;8.30;;
67074;SDS011;53990;50.334;18.640;2023-07-22T05:38:29;9.20;;;6.90;;
67074;SDS011;53990;50.334;18.640;2023-07-22T05:40:55;9.40;;;6.90;;
67074;SDS011;53990;50.334;18.640;2023-07-22T05:43:22;10.00;;;6.70;;
67074;SDS011;53990;50.334;18.640;2023-07-22T05:45:49;8.40;;;6.60;;
67074;SDS011;53990;50.334;18.640;2023-07-22T05:48:16;9.00;;;7.10;;
67074;SDS011;53990;50.334;18.640;2023-07-22T05:50:42;11.50;;;7.60;;
67074;SDS011;53990;50.334;18.640;2023-07-22T05:53:10;9.90;;;7.40;;
67074;SDS011;53990;50.334;18.640;2023-07-22T05:55:37;13.40;;;7.50;;
67074;SDS011;53990;50.334;18.640;2023-07-22T05:58:04;9.70;;;7.10;;
67074;SDS011;53990;50.334;18.640;2023-07-22T06:00:34;13.50;;;7.30;;
67074;SDS011;53990;50.334;18.640;2023-07-22T06:03:01;11.50;;;7.50;;
67074;SDS011;53990;50.334;18.640;2023-07-22T06:05:28;10.50;;;7.70;;
67074;SDS011;53990;50.334;18.640;2023-07-22T06:07:54;9.30;;;7.10;;
67074;SDS011;53990;50.334;18.640;2023-07-22T06:10:23;12.10;;;8.10;;
67074;SDS011;53990;50.334;18.640;2023-07-22T06:12:50;8.10;;;7.00;;
67074;SDS011;53990;50.334;18.640;2023-07-22T06:15:16;10.40;;;7.30;;
67074;SDS011;53990;50.334;18.640;2023-07-22T06:17:43;10.30;;;6.90;;
67074;SDS011;53990;50.334;18.640;2023-07-22T06:20:10;10.30;;;7.30;;
67074;SDS011;53990;50.334;18.640;2023-07-22T06:22:37;8.30;;;6.00;;
67074;SDS011;53990;50.334;18.640;2023-07-22T06:25:05;5.70;;;5.00;;
67074;SDS011;53990;50.334;18.640;2023-07-22T06:27:33;6.60;;;5.50;;
67074;SDS011;53990;50.334;18.640;2023-07-22T06:30:00;7.10;;;5.20;;
67074;SDS011;53990;50.334;18.640;2023-07-22T06:32:27;6.40;;;5.00;;
67074;SDS011;53990;50.334;18.640;2023-07-22T06:34:57;8.50;;;5.20;;
67074;SDS011;53990;50.334;18.640;2023-07-22T06:37:23;6.40;;;5.10;;
67074;SDS011;53990;50.334;18.640;2023-07-22T06:39:51;9.40;;;5.00;;
67074;SDS011;53990;50.334;18.640;2023-07-22T06:42:18;6.40;;;4.90;;
67074;SDS011;53990;50.334;18.640;2023-07-22T06:44:44;7.10;;;5.70;;
67074;SDS011;53990;50.334;18.640;2023-07-22T06:47:11;8.70;;;5.40;;
67074;SDS011;53990;50.334;18.640;2023-07-22T06:49:38;9.80;;;4.90;;
67074;SDS011;53990;50.334;18.640;2023-07-22T06:52:06;7.10;;;5.80;;
67074;SDS011;53990;50.334;18.640;2023-07-22T06:54:33;6.80;;;4.90;;
67074;SDS011;53990;50.334;18.640;2023-07-22T06:57:00;7.30;;;5.00;;
67074;SDS011;53990;50.334;18.640;2023-07-22T06:59:27;7.70;;;5.20;;
67074;SDS011;53990;50.334;18.640;2023-07-22T07:01:54;7.10;;;4.80;;
67074;SDS011;53990;50.334;18.640;2023-07-22T07:04:21;6.00;;;4.50;;
67074;SDS011;53990;50.334;18.640;2023-07-22T07:06:49;6.90;;;4.70;;
67074;SDS011;53990;50.334;18.640;2023-07-22T07:09:15;6.20;;;4.40;;
67074;SDS011;53990;50.334;18.640;2023-07-22T07:11:42;7.10;;;5.20;;
67074;SDS011;53990;50.334;18.640;2023-07-22T07:14:09;5.70;;;4.60;;
67074;SDS011;53990;50.334;18.640;2023-07-22T07:16:35;6.00;;;4.50;;
67074;SDS011;53990;50.334;18.640;2023-07-22T07:19:02;6.70;;;4.50;;
67074;SDS011;53990;50.334;18.640;2023-07-22T07:21:29;5.60;;;4.20;;
67074;SDS011;53990;50.334;18.640;2023-07-22T07:23:56;4.60;;;3.70;;
67074;SDS011;53990;50.334;18.640;2023-07-22T07:26:22;5.40;;;4.30;;
67074;SDS011;53990;50.334;18.640;2023-07-22T07:28:49;9.10;;;4.30;;
67074;SDS011;53990;50.334;18.640;2023-07-22T07:31:17;6.30;;;4.00;;
67074;SDS011;53990;50.334;18.640;2023-07-22T07:33:44;8.20;;;4.40;;
67074;SDS011;53990;50.334;18.640;2023-07-22T07:36:11;6.40;;;3.90;;
67074;SDS011;53990;50.334;18.640;2023-07-22T07:38:37;5.30;;;3.30;;
67074;SDS011;53990;50.334;18.640;2023-07-22T07:41:06;5.50;;;3.20;;
67074;SDS011;53990;50.334;18.640;2023-07-22T07:43:39;6.80;;;3.40;;
67074;SDS011;53990;50.334;18.640;2023-07-22T07:46:35;5.50;;;3.70;;
67074;SDS011;53990;50.334;18.640;2023-07-22T07:49:02;5.20;;;3.30;;
67074;SDS011;53990;50.334;18.640;2023-07-22T07:51:30;7.90;;;4.00;;
67074;SDS011;53990;50.334;18.640;2023-07-22T07:53:58;6.40;;;3.70;;
67074;SDS011;53990;50.334;18.640;2023-07-22T07:56:26;8.30;;;3.80;;
67074;SDS011;53990;50.334;18.640;2023-07-22T07:58:53;4.70;;;3.60;;
67074;SDS011;53990;50.334;18.640;2023-07-22T08:01:20;5.00;;;3.40;;
67074;SDS011;53990;50.334;18.640;2023-07-22T08:03:48;4.40;;;3.10;;
67074;SDS011;53990;50.334;18.640;2023-07-22T08:06:14;5.90;;;3.10;;
67074;SDS011;53990;50.334;18.640;2023-07-22T08:08:41;4.60;;;3.10;;
67074;SDS011;53990;50.334;18.640;2023-07-22T08:11:14;4.40;;;3.20;;
67074;SDS011;53990;50.334;18.640;2023-07-22T08:13:42;5.10;;;3.50;;
67074;SDS011;53990;50.334;18.640;2023-07-22T08:16:10;5.40;;;3.00;;
67074;SDS011;53990;50.334;18.640;2023-07-22T08:18:37;4.90;;;3.10;;
67074;SDS011;53990;50.334;18.640;2023-07-22T08:21:06;7.30;;;3.20;;
67074;SDS011;53990;50.334;18.640;2023-07-22T08:23:36;7.50;;;4.00;;
67074;SDS011;53990;50.334;18.640;2023-07-22T08:26:04;6.90;;;3.50;;
67074;SDS011;53990;50.334;18.640;2023-07-22T08:28:32;6.30;;;3.90;;
67074;SDS011;53990;50.334;18.640;2023-07-22T08:30:59;4.60;;;3.30;;
67074;SDS011;53990;50.334;18.640;2023-07-22T08:33:27;6.50;;;3.50;;
67074;SDS011;53990;50.334;18.640;2023-07-22T08:35:54;5.40;;;3.40;;
67074;SDS011;53990;50.334;18.640;2023-07-22T08:38:21;8.60;;;3.60;;
67074;SDS011;53990;50.334;18.640;2023-07-22T08:40:51;5.20;;;3.50;;
67074;SDS011;53990;50.334;18.640;2023-07-22T08:43:21;5.40;;;3.90;;
67074;SDS011;53990;50.334;18.640;2023-07-22T08:45:52;7.50;;;3.70;;
67074;SDS011;53990;50.334;18.640;2023-07-22T08:48:19;7.20;;;3.50;;
67074;SDS011;53990;50.334;18.640;2023-07-22T08:51:04;5.40;;;3.30;;
67074;SDS011;53990;50.334;18.640;2023-07-22T08:53:31;4.00;;;3.10;;
67074;SDS011;53990;50.334;18.640;2023-07-22T08:56:00;5.40;;;3.40;;
67074;SDS011;53990;50.334;18.640;2023-07-22T08:58:28;7.20;;;4.00;;
67074;SDS011;53990;50.334;18.640;2023-07-22T09:00:56;4.70;;;3.30;;
67074;SDS011;53990;50.334;18.640;2023-07-22T09:03:23;5.60;;;3.30;;
67074;SDS011;53990;50.334;18.640;2023-07-22T09:05:50;4.90;;;3.50;;
67074;SDS011;53990;50.334;18.640;2023-07-22T09:08:17;10.80;;;3.60;;
67074;SDS011;53990;50.334;18.640;2023-07-22T09:10:44;4.60;;;3.10;;
67074;SDS011;53990;50.334;18.640;2023-07-22T09:13:13;4.70;;;3.00;;
67074;SDS011;53990;50.334;18.640;2023-07-22T09:15:41;6.40;;;3.40;;
67074;SDS011;53990;50.334;18.640;2023-07-22T09:18:07;4.80;;;3.50;;
67074;SDS011;53990;50.334;18.640;2023-07-22T09:20:34;6.10;;;3.40;;
67074;SDS011;53990;50.334;18.640;2023-07-22T09:23:01;5.90;;;3.40;;
67074;SDS011;53990;50.334;18.640;2023-07-22T09:25:28;6.70;;;3.50;;
67074;SDS011;53990;50.334;18.640;2023-07-22T09:27:58;6.90;;;3.80;;
67074;SDS011;53990;50.334;18.640;2023-07-22T09:30:26;8.00;;;4.10;;
67074;SDS011;53990;50.334;18.640;2023-07-22T09:32:55;4.90;;;2.90;;
67074;SDS011;53990;50.334;18.640;2023-07-22T09:35:27;5.90;;;3.50;;
67074;SDS011;53990;50.334;18.640;2023-07-22T09:37:55;5.00;;;2.90;;
67074;SDS011;53990;50.334;18.640;2023-07-22T09:40:24;5.10;;;3.30;;
67074;SDS011;53990;50.334;18.640;2023-07-22T09:42:56;5.80;;;3.10;;
67074;SDS011;53990;50.334;18.640;2023-07-22T09:45:24;4.50;;;3.20;;
67074;SDS011;53990;50.334;18.640;2023-07-22T09:47:53;3.60;;;2.60;;
67074;SDS011;53990;50.334;18.640;2023-07-22T09:50:25;3.60;;;2.30;;
67074;SDS011;53990;50.334;18.640;2023-07-22T09:52:53;7.50;;;2.60;;
67074;SDS011;53990;50.334;18.640;2023-07-22T09:55:22;5.20;;;2.70;;
67074;SDS011;53990;50.334;18.640;2023-07-22T09:57:51;4.30;;;2.80;;
67074;SDS011;53990;50.334;18.640;2023-07-22T10:00:19;3.70;;;2.50;;
67074;SDS011;53990;50.334;18.640;2023-07-22T10:02:48;6.00;;;2.70;;
67074;SDS011;53990;50.334;18.640;2023-07-22T10:05:19;4.30;;;2.80;;
67074;SDS011;53990;50.334;18.640;2023-07-22T10:07:50;3.80;;;2.40;;
67074;SDS011;53990;50.334;18.640;2023-07-22T10:10:23;4.50;;;2.70;;
67074;SDS011;53990;50.334;18.640;2023-07-22T10:12:53;5.30;;;3.00;;
67074;SDS011;53990;50.334;18.640;2023-07-22T10:15:20;5.30;;;2.60;;
67074;SDS011;53990;50.334;18.640;2023-07-22T10:17:46;7.90;;;3.20;;
67074;SDS011;53990;50.334;18.640;2023-07-22T10:20:13;4.80;;;3.00;;
67074;SDS011;53990;50.334;18.640;2023-07-22T10:22:47;4.50;;;3.20;;
67074;SDS011;53990;50.334;18.640;2023-07-22T10:25:19;5.60;;;2.70;;
67074;SDS011;53990;50.334;18.640;2023-07-22T10:27:47;4.10;;;2.60;;
67074;SDS011;53990;50.334;18.640;2023-07-22T10:30:16;3.90;;;2.80;;
67074;SDS011;53990;50.334;18.640;2023-07-22T10:32:53;4.20;;;3.10;;
67074;SDS011;53990;50.334;18.640;2023-07-22T10:40:53;5.00;;;3.00;;
67074;SDS011;53990;50.334;18.640;2023-07-22T10:43:31;3.70;;;2.90;;
67074;SDS011;53990;50.334;18.640;2023-07-22T10:46:09;5.10;;;3.10;;
67074;SDS011;53990;50.334;18.640;2023-07-22T10:48:41;4.90;;;2.70;;
67074;SDS011;53990;50.334;18.640;2023-07-22T10:51:12;5.20;;;2.70;;
67074;SDS011;53990;50.334;18.640;2023-07-22T10:53:46;5.80;;;3.00;;
67074;SDS011;53990;50.334;18.640;2023-07-22T10:56:19;6.30;;;3.00;;
67074;SDS011;53990;50.334;18.640;2023-07-22T11:06:52;5.20;;;2.90;;
67074;SDS011;53990;50.334;18.640;2023-07-22T11:12:13;3.90;;;2.60;;
67074;SDS011;53990;50.334;18.640;2023-07-22T11:14:49;3.70;;;2.80;;
67074;SDS011;53990;50.334;18.640;2023-07-22T11:17:18;4.50;;;3.00;;
67074;SDS011;53990;50.334;18.640;2023-07-22T11:19:44;5.50;;;2.70;;
67074;SDS011;53990;50.334;18.640;2023-07-22T11:22:11;4.20;;;3.00;;
67074;SDS011;53990;50.334;18.640;2023-07-22T11:24:38;4.60;;;2.60;;
67074;SDS011;53990;50.334;18.640;2023-07-22T11:27:07;4.10;;;2.90;;
67074;SDS011;53990;50.334;18.640;2023-07-22T11:29:35;4.50;;;2.70;;
67074;SDS011;53990;50.334;18.640;2023-07-22T11:32:02;3.80;;;2.60;;
67074;SDS011;53990;50.334;18.640;2023-07-22T11:34:29;5.00;;;3.00;;
67074;SDS011;53990;50.334;18.640;2023-07-22T11:36:56;4.80;;;3.10;;
67074;SDS011;53990;50.334;18.640;2023-07-22T11:39:25;6.60;;;2.90;;
67074;SDS011;53990;50.334;18.640;2023-07-22T11:41:53;6.00;;;3.00;;
67074;SDS011;53990;50.334;18.640;2023-07-22T11:44:22;6.00;;;2.80;;
67074;SDS011;53990;50.334;18.640;2023-07-22T11:46:55;4.30;;;2.90;;
67074;SDS011;53990;50.334;18.640;2023-07-22T11:52:06;6.00;;;3.10;;
67074;SDS011;53990;50.334;18.640;2023-07-22T11:54:38;5.10;;;3.00;;
67074;SDS011;53990;50.334;18.640;2023-07-22T11:57:24;6.70;;;4.00;;
67074;SDS011;53990;50.334;18.640;2023-07-22T11:59:52;6.20;;;3.20;;
67074;SDS011;53990;50.334;18.640;2023-07-22T12:04:57;5.80;;;3.30;;
67074;SDS011;53990;50.334;18.640;2023-07-22T12:07:25;4.80;;;2.80;;
67074;SDS011;53990;50.334;18.640;2023-07-22T12:09:54;4.90;;;3.00;;
67074;SDS011;53990;50.334;18.640;2023-07-22T12:12:32;4.10;;;3.00;;
67074;SDS011;53990;50.334;18.640;2023-07-22T12:15:09;5.20;;;3.00;;
67074;SDS011;53990;50.334;18.640;2023-07-22T12:17:54;4.70;;;2.90;;
67074;SDS011;53990;50.334;18.640;2023-07-22T12:20:34;4.80;;;3.40;;
67074;SDS011;53990;50.334;18.640;2023-07-22T12:23:02;3.90;;;3.10;;
67074;SDS011;53990;50.334;18.640;2023-07-22T12:25:28;6.00;;;3.60;;
67074;SDS011;53990;50.334;18.640;2023-07-22T12:27:56;4.90;;;3.60;;
67074;SDS011;53990;50.334;18.640;2023-07-22T12:30:22;4.80;;;3.30;;
67074;SDS011;53990;50.334;18.640;2023-07-22T12:32:50;4.30;;;3.30;;
67074;SDS011;53990;50.334;18.640;2023-07-22T12:35:18;5.30;;;3.30;;
67074;SDS011;53990;50.334;18.640;2023-07-22T12:37:46;5.40;;;3.00;;
67074;SDS011;53990;50.334;18.640;2023-07-22T12:40:12;6.90;;;3.50;;
67074;SDS011;53990;50.334;18.640;2023-07-22T12:42:39;6.40;;;2.80;;
67074;SDS011;53990;50.334;18.640;2023-07-22T12:45:07;4.20;;;3.10;;
67074;SDS011;53990;50.334;18.640;2023-07-22T12:47:34;4.80;;;3.40;;
67074;SDS011;53990;50.334;18.640;2023-07-22T12:50:01;5.10;;;3.30;;
67074;SDS011;53990;50.334;18.640;2023-07-22T12:52:27;5.70;;;2.90;;
67074;SDS011;53990;50.334;18.640;2023-07-22T12:54:54;3.90;;;3.10;;
67074;SDS011;53990;50.334;18.640;2023-07-22T12:57:21;4.60;;;2.70;;
67074;SDS011;53990;50.334;18.640;2023-07-22T12:59:47;7.00;;;3.20;;
67074;SDS011;53990;50.334;18.640;2023-07-22T13:02:16;5.20;;;3.00;;
67074;SDS011;53990;50.334;18.640;2023-07-22T13:04:43;6.60;;;2.90;;
67074;SDS011;53990;50.334;18.640;2023-07-22T13:07:11;4.20;;;2.80;;
67074;SDS011;53990;50.334;18.640;2023-07-22T13:09:37;6.60;;;2.90;;
67074;SDS011;53990;50.334;18.640;2023-07-22T13:12:04;6.30;;;2.80;;
67074;SDS011;53990;50.334;18.640;2023-07-22T13:14:31;6.40;;;2.60;;
67074;SDS011;53990;50.334;18.640;2023-07-22T13:16:58;4.70;;;2.50;;
67074;SDS011;53990;50.334;18.640;2023-07-22T13:19:24;3.90;;;2.60;;
67074;SDS011;53990;50.334;18.640;2023-07-22T13:21:51;5.20;;;3.20;;
67074;SDS011;53990;50.334;18.640;2023-07-22T13:24:18;5.90;;;3.20;;
67074;SDS011;53990;50.334;18.640;2023-07-22T13:26:44;5.30;;;2.90;;
67074;SDS011;53990;50.334;18.640;2023-07-22T13:29:11;5.10;;;3.20;;
67074;SDS011;53990;50.334;18.640;2023-07-22T13:31:38;6.10;;;2.80;;
67074;SDS011;53990;50.334;18.640;2023-07-22T13:34:05;6.00;;;2.80;;
67074;SDS011;53990;50.334;18.640;2023-07-22T13:36:32;6.60;;;3.00;;
67074;SDS011;53990;50.334;18.640;2023-07-22T13:38:58;3.60;;;2.80;;
67074;SDS011;53990;50.334;18.640;2023-07-22T13:41:25;3.90;;;2.60;;
67074;SDS011;53990;50.334;18.640;2023-07-22T13:43:52;4.20;;;3.10;;
67074;SDS011;53990;50.334;18.640;2023-07-22T13:46:19;3.90;;;2.50;;
67074;SDS011;53990;50.334;18.640;2023-07-22T13:48:46;3.90;;;2.60;;
67074;SDS011;53990;50.334;18.640;2023-07-22T13:51:13;4.80;;;2.80;;
67074;SDS011;53990;50.334;18.640;2023-07-22T13:53:39;7.00;;;2.70;;
67074;SDS011;53990;50.334;18.640;2023-07-22T13:56:06;7.80;;;3.10;;
67074;SDS011;53990;50.334;18.640;2023-07-22T13:58:33;4.80;;;2.40;;
67074;SDS011;53990;50.334;18.640;2023-07-22T14:01:00;3.50;;;2.60;;
67074;SDS011;53990;50.334;18.640;2023-07-22T14:03:26;4.60;;;2.50;;
67074;SDS011;53990;50.334;18.640;2023-07-22T14:05:53;4.20;;;2.60;;
67074;SDS011;53990;50.334;18.640;2023-07-22T14:08:20;4.30;;;2.20;;
67074;SDS011;53990;50.334;18.640;2023-07-22T14:10:46;8.90;;;2.60;;
67074;SDS011;53990;50.334;18.640;2023-07-22T14:13:14;4.40;;;2.60;;
67074;SDS011;53990;50.334;18.640;2023-07-22T14:15:41;3.20;;;2.40;;
67074;SDS011;53990;50.334;18.640;2023-07-22T14:18:07;5.60;;;3.20;;
67074;SDS011;53990;50.334;18.640;2023-07-22T14:20:39;5.60;;;3.00;;
67074;SDS011;53990;50.334;18.640;2023-07-22T14:23:06;5.20;;;2.90;;
67074;SDS011;53990;50.334;18.640;2023-07-22T14:25:33;3.60;;;2.70;;
67074;SDS011;53990;50.334;18.640;2023-07-22T14:27:59;3.80;;;2.40;;
67074;SDS011;53990;50.334;18.640;2023-07-22T14:30:26;3.60;;;2.30;;
67074;SDS011;53990;50.334;18.640;2023-07-22T14:32:53;5.20;;;2.70;;
67074;SDS011;53990;50.334;18.640;2023-07-22T14:35:20;4.20;;;2.40;;
67074;SDS011;53990;50.334;18.640;2023-07-22T14:37:47;4.30;;;2.70;;
67074;SDS011;53990;50.334;18.640;2023-07-22T14:40:14;5.00;;;2.50;;
67074;SDS011;53990;50.334;18.640;2023-07-22T14:42:40;3.40;;;2.50;;
67074;SDS011;53990;50.334;18.640;2023-07-22T14:45:07;5.70;;;2.60;;
67074;SDS011;53990;50.334;18.640;2023-07-22T14:47:34;5.40;;;2.70;;
67074;SDS011;53990;50.334;18.640;2023-07-22T14:50:02;4.50;;;2.60;;
67074;SDS011;53990;50.334;18.640;2023-07-22T14:52:28;4.00;;;2.40;;
67074;SDS011;53990;50.334;18.640;2023-07-22T14:54:55;6.10;;;3.10;;